Time;durP1;ratioP1;P1;durP2;ratioP2;P2;SDS_P1;SDS_P2;PMS_P1;PMS_P2;Temp;Humidity;BMP_temperature;BMP_pressure;BME280_temperature;BME280_humidity;BME280_pressure;Samples;Min_cycle;Max_cycle;Signal;HPM_P1;HPM_P2
2022/01/18 00:02:11;;;;;;;;;;;;;;;4.77;56.64;100700.36;1754678;80;20153;-83
2022/01/18 00:04:36;;;;;;;;;;;;;;;4.81;56.95;100709.68;1763157;80;20196;-83
2022/01/18 00:07:02;;;;;;;;;;;;;;;4.73;57.10;100717.22;1765155;79;20621;-83
2022/01/18 00:09:28;;;;;;;;;;;;;;;4.84;57.42;100710.78;1767982;80;21198;-81
2022/01/18 00:12:10;;;;;;;;;;;;;;;4.88;57.29;100714.87;1756876;79;20153;-83
2022/01/18 00:14:28;;;;;;;;;;;;;;;4.94;57.27;100713.14;1756960;80;20621;-83
2022/01/18 00:17:05;;;;;;;;;;;;;;;4.91;57.42;100713.34;1761114;80;20120;-82
2022/01/18 00:19:29;;;;;;;;;;;;;;;5.02;57.19;100735.69;1763498;80;20480;-85
2022/01/18 00:24:28;;;;;;;;;;;;;;;5.09;57.00;100728.72;1763666;80;20140;-81
2022/01/18 00:26:54;;;;;;;;;;;;;;;5.17;56.80;100743.41;1764042;79;20509;-82
2022/01/18 00:29:23;;;;;;;;;;;;;;;4.98;57.01;100722.43;1767105;80;20552;-82
2022/01/18 00:32:02;;;;;;;;;;;;;;;4.99;57.15;100708.89;1753070;79;20225;-83
2022/01/18 00:34:26;;;;;;;;;;;;;;;4.65;57.24;100710.72;1757345;80;20102;-82
2022/01/18 00:39:15;;;;;;;;;;;;;;;5.25;56.67;100728.03;1759367;79;20185;-83
2022/01/18 00:41:40;;;;;;;;;;;;;;;5.61;55.76;100730.30;1762164;80;21223;-82
2022/01/18 00:44:07;;;;;;;;;;;;;;;5.78;55.25;100723.84;1767522;80;20137;-82
2022/01/18 00:46:33;;;;;;;;;;;;;;;4.99;56.76;100730.66;1757858;79;21101;-82
2022/01/18 00:49:01;;;;;;;;;;;;;;;5.08;56.95;100744.05;1767400;80;20165;-82
2022/01/18 00:51:26;;;;;;;;;;;;;;;4.89;57.45;100736.16;1768890;79;20205;-84
2022/01/18 00:53:52;;;;;;;;;;;;;;;4.85;57.72;100745.17;1763563;80;20116;-83
2022/01/18 00:56:30;;;;;;;;;;;;;;;4.72;58.31;100750.86;1760300;80;20185;-83
2022/01/18 00:58:54;;;;;;;;;;;;;;;4.72;58.55;100758.70;1765175;80;20360;-81
2022/01/18 01:01:21;;;;;;;;;;;;;;;5.44;57.32;100776.47;1767458;80;20131;-81
2022/01/18 01:03:47;;;;;;;;;;;;;;;4.93;58.60;100774.27;1778718;80;20213;-81
2022/01/18 01:06:13;;;;;;;;;;;;;;;5.01;58.99;100770.64;1775479;80;20206;-83
2022/01/18 01:08:39;;;;;;;;;;;;;;;4.73;60.01;100780.02;1771122;80;20159;-85
2022/01/18 01:11:05;;;;;;;;;;;;;;;4.41;60.89;100785.14;1768787;79;21021;-83
2022/01/18 01:13:31;;;;;;;;;;;;;;;4.25;61.63;100778.74;1766107;80;20100;-82
2022/01/18 01:16:10;;;;;;;;;;;;;;;4.13;62.18;100797.39;1767756;80;20106;-82
2022/01/18 01:35:05;;;;;;;;;;;;;;;3.91;63.14;100820.09;1782703;80;20128;-83
2022/01/18 01:45:24;;;;;;;;;;;;;;;3.72;63.82;100830.04;1734690;80;20181;-83
2022/01/18 01:47:51;;;;;;;;;;;;;;;3.77;64.17;100824.05;1774183;80;20215;-82
2022/01/18 01:50:19;;;;;;;;;;;;;;;3.75;64.16;100829.85;1759425;79;20146;-82
2022/01/18 01:52:44;;;;;;;;;;;;;;;3.72;63.92;100844.41;1774510;80;20133;-82
2022/01/18 01:55:09;;;;;;;;;;;;;;;3.69;64.06;100833.67;1772169;79;20552;-82
2022/01/18 01:57:35;;;;;;;;;;;;;;;3.56;64.48;100837.52;1769644;80;20599;-82
2022/01/18 02:00:05;;;;;;;;;;;;;;;3.56;64.48;100833.59;1772444;79;20135;-85
2022/01/18 02:02:31;;;;;;;;;;;;;;;3.76;64.03;100840.69;1740790;80;21159;-81
2022/01/18 02:04:56;;;;;;;;;;;;;;;4.20;62.71;100830.50;1715153;83;20203;-81
2022/01/18 02:07:23;;;;;;;;;;;;;;;4.00;62.89;100813.95;1712125;83;20282;-82
2022/01/18 02:09:49;;;;;;;;;;;;;;;3.51;64.10;100825.22;1710844;83;20142;-83
2022/01/18 02:12:19;;;;;;;;;;;;;;;3.75;64.02;100827.23;1709630;83;20160;-82
2022/01/18 02:14:54;;;;;;;;;;;;;;;3.65;64.11;100833.95;1712818;83;21147;-81
2022/01/18 02:22:50;;;;;;;;;;;;;;;3.12;65.07;100841.49;1711890;83;20191;-83
2022/01/18 02:25:15;;;;;;;;;;;;;;;3.76;63.82;100847.22;1715883;83;20190;-81
2022/01/18 02:27:42;;;;;;;;;;;;;;;3.53;64.59;100857.77;1708857;83;20648;-81
2022/01/18 02:30:08;;;;;;;;;;;;;;;3.44;64.69;100851.31;1715998;83;20153;-81
2022/01/18 02:32:34;;;;;;;;;;;;;;;3.19;65.28;100859.30;1712683;83;20132;-82
2022/01/18 02:35:00;;;;;;;;;;;;;;;3.57;64.52;100856.63;1715999;83;20135;-81
2022/01/18 02:37:25;;;;;;;;;;;;;;;3.48;64.70;100846.29;1712096;83;20270;-82
2022/01/18 02:39:51;;;;;;;;;;;;;;;3.49;64.70;100851.86;1706859;83;21771;-81
2022/01/18 02:42:24;;;;;;;;;;;;;;;2.88;66.58;100866.31;1747513;81;20295;-81
2022/01/18 02:44:50;;;;;;;;;;;;;;;3.17;65.71;100858.56;1709693;83;20125;-82
2022/01/18 02:47:19;;;;;;;;;;;;;;;3.16;65.90;100862.09;1725356;82;20490;-84
2022/01/18 02:49:44;;;;;;;;;;;;;;;3.02;66.49;100868.60;1724444;82;20168;-83
2022/01/18 02:52:10;;;;;;;;;;;;;;;3.10;66.58;100867.67;1729140;82;21795;-83
2022/01/18 02:54:36;;;;;;;;;;;;;;;3.07;66.52;100857.42;1708255;83;20143;-82
2022/01/18 02:57:03;;;;;;;;;;;;;;;2.98;66.87;100865.34;1759676;79;20543;-81
2022/01/18 02:59:49;;;;;;;;;;;;;;;3.38;66.04;100856.91;1729180;81;20152;-83
2022/01/18 03:05:03;;;;;;;;;;;;;;;3.32;66.42;100858.10;1714420;83;20133;-81
2022/01/18 03:07:28;;;;;;;;;;;;;;;3.15;66.81;100870.02;1707073;83;20214;-82
2022/01/18 03:09:54;;;;;;;;;;;;;;;3.17;66.70;100874.67;1704499;82;20457;-81
2022/01/18 03:12:20;;;;;;;;;;;;;;;3.09;67.18;100879.03;1732850;81;20384;-83
2022/01/18 03:14:45;;;;;;;;;;;;;;;3.26;66.77;100871.52;1714936;81;20139;-82
2022/01/18 03:17:11;;;;;;;;;;;;;;;3.11;67.12;100873.73;1722162;82;21083;-81
2022/01/18 03:19:36;;;;;;;;;;;;;;;3.22;66.93;100877.39;1725851;82;20190;-82
2022/01/18 03:22:03;;;;;;;;;;;;;;;3.12;67.42;100881.47;1726708;81;20147;-82
2022/01/18 03:29:33;;;;;;;;;;;;;;;2.90;68.33;100881.05;1663330;85;20097;-82
2022/01/18 03:31:58;;;;;;;;;;;;;;;2.77;68.64;100880.45;1727187;82;20202;-81
2022/01/18 03:34:24;;;;;;;;;;;;;;;2.84;68.43;100885.70;1725739;82;20248;-82
2022/01/18 03:36:50;;;;;;;;;;;;;;;3.02;68.14;100893.39;1723867;82;21248;-82
2022/01/18 03:39:15;;;;;;;;;;;;;;;2.80;68.73;100885.49;1726354;82;20247;-83
2022/01/18 03:41:41;;;;;;;;;;;;;;;3.13;67.71;100896.20;1727131;82;21022;-82
2022/01/18 03:44:07;;;;;;;;;;;;;;;3.13;67.95;100900.12;1729479;81;20184;-83
2022/01/18 03:46:36;;;;;;;;;;;;;;;2.90;68.36;100903.23;1725601;81;20213;-83
2022/01/18 03:49:02;;;;;;;;;;;;;;;2.84;68.62;100914.39;1725786;82;20141;-82
2022/01/18 03:51:27;;;;;;;;;;;;;;;2.70;69.32;100905.19;1726958;82;20897;-82
2022/01/18 03:53:53;;;;;;;;;;;;;;;2.79;68.78;100899.45;1725358;82;21086;-83
2022/01/18 03:56:18;;;;;;;;;;;;;;;2.70;69.12;100906.49;1730340;82;20194;-82
2022/01/18 03:58:44;;;;;;;;;;;;;;;2.62;69.54;100915.22;1725946;82;20148;-81
2022/01/18 04:01:09;;;;;;;;;;;;;;;2.95;68.75;100907.70;1723519;82;20489;-81
2022/01/18 04:03:35;;;;;;;;;;;;;;;2.68;69.66;100907.88;1735296;80;20175;-82
2022/01/18 04:06:01;;;;;;;;;;;;;;;2.64;69.95;100924.65;1743835;81;21031;-81
2022/01/18 04:08:26;;;;;;;;;;;;;;;2.70;69.75;100911.70;1741496;81;20263;-82
2022/01/18 04:10:52;;;;;;;;;;;;;;;2.59;69.78;100940.99;1743462;81;20135;-81
2022/01/18 04:13:17;;;;;;;;;;;;;;;2.59;70.31;100934.47;1739314;81;20440;-81
2022/01/18 04:15:43;;;;;;;;;;;;;;;2.63;70.26;100929.47;1735569;81;20142;-83
2022/01/18 04:28:55;;;;;;;;;;;;;;;2.40;71.11;100948.99;1732483;81;20166;-82
2022/01/18 04:31:20;;;;;;;;;;;;;;;2.46;71.13;100942.61;1746863;81;21154;-82
2022/01/18 04:33:46;;;;;;;;;;;;;;;2.40;71.32;100956.81;1739508;81;20212;-83
2022/01/18 04:36:11;;;;;;;;;;;;;;;2.45;71.08;100971.73;1741663;81;20321;-82
2022/01/18 04:38:38;;;;;;;;;;;;;;;2.55;71.03;100968.63;1739841;81;21384;-82
2022/01/18 04:41:13;;;;;;;;;;;;;;;2.51;71.29;100966.66;1735155;81;20219;-83
2022/01/18 04:48:55;;;;;;;;;;;;;;;2.99;69.83;100967.92;1737204;81;20145;-83
2022/01/18 04:51:21;;;;;;;;;;;;;;;2.96;70.11;100975.92;1737986;81;20149;-83
2022/01/18 04:53:51;;;;;;;;;;;;;;;3.11;69.68;100980.28;1724413;81;20725;-83
2022/01/18 04:56:18;;;;;;;;;;;;;;;3.43;68.51;100992.39;1740716;81;20210;-82
2022/01/18 04:58:43;;;;;;;;;;;;;;;3.06;69.59;100986.20;1740961;81;20484;-83
2022/01/18 05:01:08;;;;;;;;;;;;;;;3.52;68.17;100994.00;1740428;80;20141;-82
2022/01/18 05:03:34;;;;;;;;;;;;;;;3.30;68.67;100987.05;1742276;80;20684;-81
2022/01/18 05:06:03;;;;;;;;;;;;;;;3.21;69.00;101028.39;1741770;81;20134;-82
2022/01/18 05:08:27;;;;;;;;;;;;;;;3.55;68.56;101019.93;1733096;81;20170;-83
2022/01/18 05:10:57;;;;;;;;;;;;;;;3.31;68.52;101016.98;1743350;81;20691;-81
2022/01/18 05:13:49;;;;;;;;;;;;;;;3.37;68.96;101027.52;1734148;81;20376;-81
2022/01/18 05:16:18;;;;;;;;;;;;;;;3.48;68.59;101035.60;1731723;80;20223;-82
2022/01/18 05:21:12;;;;;;;;;;;;;;;3.27;69.32;101033.73;1745668;80;20483;-83
2022/01/18 05:23:22;;;;;;;;;;;;;;;3.03;70.11;101039.42;1742166;80;20149;-81
2022/01/18 05:25:48;;;;;;;;;;;;;;;3.06;70.19;101042.30;1742180;81;20145;-82
2022/01/18 05:28:14;;;;;;;;;;;;;;;3.06;70.41;101013.59;1739419;81;20181;-80
2022/01/18 05:30:40;;;;;;;;;;;;;;;3.07;70.23;101023.12;1738118;81;20198;-81
2022/01/18 05:33:06;;;;;;;;;;;;;;;3.20;69.70;101035.87;1733366;81;21995;-81
2022/01/18 05:35:32;;;;;;;;;;;;;;;2.92;70.85;101033.11;1741502;81;20170;-81
2022/01/18 05:37:58;;;;;;;;;;;;;;;3.53;69.58;101031.42;1743793;81;20152;-81
2022/01/18 05:40:24;;;;;;;;;;;;;;;3.48;69.39;101035.60;1738553;81;20171;-82
2022/01/18 05:42:49;;;;;;;;;;;;;;;3.40;69.39;101039.95;1737124;81;20168;-81
2022/01/18 05:45:15;;;;;;;;;;;;;;;3.69;68.44;101045.72;1746211;80;21092;-82
2022/01/18 05:47:41;;;;;;;;;;;;;;;3.66;68.84;101045.91;1738077;80;20145;-84
2022/01/18 05:50:07;;;;;;;;;;;;;;;3.51;69.14;101048.92;1744743;80;20229;-84
2022/01/18 05:52:33;;;;;;;;;;;;;;;3.47;69.50;101033.91;1739421;81;20133;-84
2022/01/18 05:54:58;;;;;;;;;;;;;;;3.02;70.51;101021.23;1740339;81;20208;-83
2022/01/18 05:57:24;;;;;;;;;;;;;;;2.98;71.56;101044.50;1737512;81;20291;-84
2022/01/18 05:59:50;;;;;;;;;;;;;;;3.30;70.58;101032.73;1735927;81;20156;-82
2022/01/18 06:02:18;;;;;;;;;;;;;;;3.10;70.92;101032.08;1740686;81;20122;-83
2022/01/18 06:07:28;;;;;;;;;;;;;;;3.00;71.26;101051.81;1759769;80;20571;-84
2022/01/18 06:09:53;;;;;;;;;;;;;;;2.81;72.23;101052.81;1769829;79;21039;-82
2022/01/18 06:12:20;;;;;;;;;;;;;;;2.73;72.69;101069.80;1763657;79;20644;-84
2022/01/18 06:14:46;;;;;;;;;;;;;;;2.90;72.07;101055.84;1767037;80;20138;-84
2022/01/18 06:17:11;;;;;;;;;;;;;;;2.94;72.20;101057.36;1760099;80;20566;-81
2022/01/18 06:19:37;;;;;;;;;;;;;;;3.00;71.76;101059.63;1762540;80;20152;-81
2022/01/18 06:22:03;;;;;;;;;;;;;;;3.09;71.51;101056.48;1768348;79;21067;-85
2022/01/18 06:24:28;;;;;;;;;;;;;;;3.31;70.69;101047.45;1762818;79;20886;-82
2022/01/18 06:26:54;;;;;;;;;;;;;;;2.83;72.50;101054.03;1760699;80;20139;-81
2022/01/18 06:29:21;;;;;;;;;;;;;;;3.02;74.79;101063.82;1767367;80;20439;-82
2022/01/18 06:31:47;;;;;;;;;;;;;;;3.16;72.25;101068.28;1756980;79;20203;-83
2022/01/18 06:34:14;;;;;;;;;;;;;;;3.04;71.97;101058.52;1764642;80;20999;-83
2022/01/18 06:36:42;;;;;;;;;;;;;;;2.98;72.40;101063.63;1763296;80;20307;-83
2022/01/18 06:39:07;;;;;;;;;;;;;;;3.30;71.57;101065.36;1760293;80;20120;-84
2022/01/18 06:41:33;;;;;;;;;;;;;;;3.28;71.45;101073.73;1759527;80;20500;-84
2022/01/18 06:43:59;;;;;;;;;;;;;;;3.22;71.78;101065.32;1765376;79;20156;-85
2022/01/18 06:46:24;;;;;;;;;;;;;;;3.22;72.20;101071.84;1763043;80;21066;-84
2022/01/18 06:48:50;;;;;;;;;;;;;;;3.43;71.28;101075.95;1761721;80;20150;-86
2022/01/18 06:51:15;;;;;;;;;;;;;;;3.62;70.93;101082.26;1733710;80;20495;-85
2022/01/18 06:53:45;;;;;;;;;;;;;;;3.36;71.36;101074.16;1768967;80;20133;-83
2022/01/18 06:56:08;;;;;;;;;;;;;;;3.49;71.01;101079.04;1768520;80;20145;-83
2022/01/18 06:58:34;;;;;;;;;;;;;;;3.61;71.22;101075.38;1762841;80;21163;-83
2022/01/18 07:01:00;;;;;;;;;;;;;;;3.26;72.10;101086.86;1760905;79;20143;-86
2022/01/18 07:03:25;;;;;;;;;;;;;;;3.72;70.88;101097.31;1760030;80;20482;-82
2022/01/18 07:05:51;;;;;;;;;;;;;;;3.84;70.00;101119.29;1761022;80;20127;-82
2022/01/18 07:08:16;;;;;;;;;;;;;;;3.28;72.12;101114.19;1763476;80;20440;-83
2022/01/18 07:10:42;;;;;;;;;;;;;;;3.39;72.23;101107.92;1763846;80;21935;-84
2022/01/18 07:13:09;;;;;;;;;;;;;;;3.35;71.94;101116.84;1775351;80;20143;-84
2022/01/18 07:15:35;;;;;;;;;;;;;;;3.41;72.42;101108.67;1765505;80;20160;-81
2022/01/18 07:18:00;;;;;;;;;;;;;;;3.24;72.60;101127.41;1770880;80;20433;-86
2022/01/18 07:20:26;;;;;;;;;;;;;;;3.26;73.02;101117.36;1769653;80;20122;-85
2022/01/18 07:22:51;;;;;;;;;;;;;;;3.71;71.43;101123.52;1755391;80;22122;-85
2022/01/18 07:25:18;;;;;;;;;;;;;;;3.54;71.98;101121.87;1763626;80;20158;-85
2022/01/18 07:27:44;;;;;;;;;;;;;;;3.53;72.31;101128.87;1769024;80;20151;-85
2022/01/18 07:30:10;;;;;;;;;;;;;;;3.61;71.67;101123.69;1750810;80;20636;-85
2022/01/18 07:32:36;;;;;;;;;;;;;;;3.84;71.23;101148.03;1753476;80;20198;-81
2022/01/18 07:35:07;;;;;;;;;;;;;;;3.83;71.02;101141.11;1752094;80;21952;-81
2022/01/18 07:37:32;;;;;;;;;;;;;;;3.90;70.93;101147.67;1757429;80;20595;-86
2022/01/18 07:39:58;;;;;;;;;;;;;;;3.92;70.95;101144.50;1772187;80;20161;-86
2022/01/18 07:42:24;;;;;;;;;;;;;;;4.14;70.22;101150.62;1762269;80;20179;-86
2022/01/18 07:44:49;;;;;;;;;;;;;;;4.21;70.05;101157.66;1761543;80;20274;-82
2022/01/18 07:47:15;;;;;;;;;;;;;;;4.05;70.09;101185.61;1752903;80;21139;-82
2022/01/18 07:49:41;;;;;;;;;;;;;;;4.12;70.12;101171.27;1759884;80;20300;-82
2022/01/18 07:52:06;;;;;;;;;;;;;;;4.07;70.38;101188.97;1769631;80;20161;-83
2022/01/18 07:54:32;;;;;;;;;;;;;;;4.16;70.42;101186.30;1756952;80;20133;-85
2022/01/18 07:56:57;;;;;;;;;;;;;;;4.24;70.16;101177.09;1756380;80;20159;-84
2022/01/18 07:59:23;;;;;;;;;;;;;;;4.12;70.49;101192.18;1767834;80;21077;-89
2022/01/18 08:01:49;;;;;;;;;;;;;;;4.21;70.06;101187.73;1763668;80;20218;-83
2022/01/18 08:04:14;;;;;;;;;;;;;;;4.39;69.90;101191.02;1759674;80;20209;-83
2022/01/18 08:06:40;;;;;;;;;;;;;;;4.35;69.95;101199.13;1769169;80;20185;-83
2022/01/18 08:09:06;;;;;;;;;;;;;;;4.57;69.34;101211.78;1765687;80;20253;-83
2022/01/18 08:11:31;;;;;;;;;;;;;;;4.71;68.61;101226.66;1759675;80;21152;-84
2022/01/18 08:13:59;;;;;;;;;;;;;;;4.62;68.85;101238.05;1763441;80;20202;-86
2022/01/18 08:18:56;;;;;;;;;;;;;;;4.64;69.40;101215.25;1766755;80;20114;-83
2022/01/18 08:21:22;;;;;;;;;;;;;;;5.14;67.66;101224.06;1767465;80;20203;-83
2022/01/18 08:23:47;;;;;;;;;;;;;;;4.70;68.45;101226.30;1760980;80;21885;-82
2022/01/18 08:26:13;;;;;;;;;;;;;;;4.70;69.12;101228.92;1753222;80;20170;-84
2022/01/18 08:28:38;;;;;;;;;;;;;;;4.79;69.11;101248.00;1761370;80;20150;-84
2022/01/18 08:31:04;;;;;;;;;;;;;;;4.88;68.61;101244.83;1732449;80;20432;-83
2022/01/18 08:33:35;;;;;;;;;;;;;;;4.83;68.85;101259.94;1772396;80;20194;-82
2022/01/18 08:36:03;;;;;;;;;;;;;;;5.16;68.25;101251.02;1765410;80;20409;-83
2022/01/18 08:38:28;;;;;;;;;;;;;;;5.15;68.43;101242.77;1756136;80;20157;-84
2022/01/18 08:40:54;;;;;;;;;;;;;;;5.29;67.99;101249.30;1760474;80;20216;-84
2022/01/18 08:43:20;;;;;;;;;;;;;;;5.40;67.77;101249.47;1766292;80;21040;-85
2022/01/18 08:45:46;;;;;;;;;;;;;;;5.39;67.89;101255.66;1761696;80;20180;-84
2022/01/18 08:48:12;;;;;;;;;;;;;;;5.28;68.11;101265.94;1764347;80;22324;-85
2022/01/18 08:50:38;;;;;;;;;;;;;;;5.50;67.39;101282.51;1757915;80;20126;-85
2022/01/18 08:53:03;;;;;;;;;;;;;;;5.25;68.10;101271.84;1757150;80;20183;-85
2022/01/18 08:55:29;;;;;;;;;;;;;;;5.36;67.85;101271.58;1760049;80;21030;-84
2022/01/18 08:57:55;;;;;;;;;;;;;;;5.57;67.27;101289.51;1776714;80;20568;-81
2022/01/18 09:00:20;;;;;;;;;;;;;;;5.10;68.35;101306.37;1771945;80;21095;-82
2022/01/18 09:02:48;;;;;;;;;;;;;;;5.35;68.19;101300.00;1763101;80;20505;-82
2022/01/18 09:05:13;;;;;;;;;;;;;;;5.38;67.95;101309.45;1764307;80;20180;-84
2022/01/18 09:07:39;;;;;;;;;;;;;;;5.31;68.17;101329.09;1760131;80;20138;-85
2022/01/18 09:10:07;;;;;;;;;;;;;;;5.17;68.40;101316.83;1763212;80;20521;-84
2022/01/18 09:12:34;;;;;;;;;;;;;;;5.09;69.08;101334.78;1762645;80;21178;-83
2022/01/18 09:15:00;;;;;;;;;;;;;;;5.27;68.75;101329.75;1759975;80;20209;-83
2022/01/18 09:17:29;;;;;;;;;;;;;;;4.99;68.75;101339.25;1764591;80;20110;-84
2022/01/18 09:19:56;;;;;;;;;;;;;;;5.31;68.44;101328.61;1752442;80;20229;-83
2022/01/18 09:22:22;;;;;;;;;;;;;;;5.24;68.58;101329.94;1765397;80;20152;-84
2022/01/18 09:24:47;;;;;;;;;;;;;;;5.55;67.71;101338.55;1758119;80;21109;-87
2022/01/18 09:27:13;;;;;;;;;;;;;;;5.41;67.85;101327.61;1754491;80;20158;-85
2022/01/18 09:29:41;;;;;;;;;;;;;;;5.43;67.80;101323.58;1747548;80;20194;-83
2022/01/18 09:32:07;;;;;;;;;;;;;;;5.44;67.82;101344.45;1759434;80;20664;-83
2022/01/18 09:34:34;;;;;;;;;;;;;;;5.70;67.10;101344.16;1761328;80;20181;-85
2022/01/18 09:36:59;;;;;;;;;;;;;;;5.68;67.18;101347.33;1754052;80;22128;-87
2022/01/18 09:39:26;;;;;;;;;;;;;;;5.96;66.77;101360.02;1755792;80;20120;-79
2022/01/18 09:41:52;;;;;;;;;;;;;;;5.90;66.59;101357.34;1749176;80;20156;-81
2022/01/18 09:44:18;;;;;;;;;;;;;;;5.83;66.46;101363.06;1745811;80;20543;-81
2022/01/18 09:46:44;;;;;;;;;;;;;;;5.68;66.43;101374.84;1763104;80;20241;-80
2022/01/18 09:49:09;;;;;;;;;;;;;;;5.90;66.28;101378.31;1758588;80;21183;-81
2022/01/18 09:51:35;;;;;;;;;;;;;;;6.16;65.41;101375.02;1767238;80;20611;-78
2022/01/18 09:54:00;;;;;;;;;;;;;;;6.24;65.07;101368.80;1756206;80;20146;-78
2022/01/18 09:56:26;;;;;;;;;;;;;;;6.49;64.92;101379.03;1750560;80;20255;-76
2022/01/18 09:58:52;;;;;;;;;;;;;;;6.56;64.54;101394.29;1748837;80;20598;-78
2022/01/18 10:01:19;;;;;;;;;;;;;;;6.25;65.14;101395.42;1759080;80;21462;-79
2022/01/18 10:03:44;;;;;;;;;;;;;;;6.35;64.99;101396.50;1758761;80;20155;-81
2022/01/18 10:06:10;;;;;;;;;;;;;;;6.34;64.67;101422.83;1766361;80;20470;-82
2022/01/18 10:08:37;;;;;;;;;;;;;;;6.49;64.53;101407.42;1766895;80;20511;-82
2022/01/18 10:11:15;;;;;;;;;;;;;;;6.13;65.45;101402.27;1770853;80;20525;-79
2022/01/18 10:13:41;;;;;;;;;;;;;;;6.51;64.42;101416.51;1768135;79;20610;-82
2022/01/18 10:16:08;;;;;;;;;;;;;;;6.19;65.26;101412.38;1763584;79;20251;-81
2022/01/18 10:18:48;;;;;;;;;;;;;;;6.54;64.37;101405.81;1766174;80;20220;-80
2022/01/18 10:21:11;;;;;;;;;;;;;;;6.36;64.86;101434.92;1767077;80;20097;-79
2022/01/18 10:23:37;;;;;;;;;;;;;;;6.46;64.62;101413.73;1771138;80;20188;-79
2022/01/18 10:26:17;;;;;;;;;;;;;;;6.66;63.75;101418.14;1768206;79;21199;-81
2022/01/18 10:28:43;;;;;;;;;;;;;;;6.93;63.13;101417.28;1769285;80;38906;-79
2022/01/18 10:31:33;;;;;;;;;;;;;;;6.65;63.78;101424.36;1776044;80;20704;-81
2022/01/18 10:34:12;;;;;;;;;;;;;;;6.95;63.23;101428.06;1769497;80;20304;-79
2022/01/18 10:36:36;;;;;;;;;;;;;;;6.00;64.89;101432.36;1758189;80;20494;-81
2022/01/18 10:39:03;;;;;;;;;;;;;;;6.81;63.07;101439.47;1752382;79;22163;-81
2022/01/18 10:41:30;;;;;;;;;;;;;;;6.70;63.08;101443.27;1762257;79;20472;-81
2022/01/18 10:44:13;;;;;;;;;;;;;;;6.28;63.76;101449.00;1765100;79;20685;-81
2022/01/18 10:46:43;;;;;;;;;;;;;;;6.33;63.75;101448.72;1761103;79;20580;-83
2022/01/18 10:49:09;;;;;;;;;;;;;;;6.51;63.48;101450.63;1768835;80;20184;-83
2022/01/18 10:51:37;;;;;;;;;;;;;;;6.63;63.14;101459.03;1772747;80;21014;-81
2022/01/18 10:54:09;;;;;;;;;;;;;;;6.51;63.61;101455.88;1762034;79;20169;-81
2022/01/18 10:56:46;;;;;;;;;;;;;;;7.09;61.91;101450.80;1771273;80;20450;-81
2022/01/18 10:59:22;;;;;;;;;;;;;;;6.45;62.70;101461.89;1763250;79;20228;-81
2022/01/18 11:02:14;;;;;;;;;;;;;;;6.81;61.90;101458.33;1761459;79;20227;-80
2022/01/18 11:04:42;;;;;;;;;;;;;;;6.57;62.56;101444.53;1764783;79;22362;-79
2022/01/18 11:07:08;;;;;;;;;;;;;;;7.25;61.35;101437.47;1760574;79;20923;-79
2022/01/18 11:09:34;;;;;;;;;;;;;;;7.41;60.53;101449.12;1754311;80;20146;-81
2022/01/18 11:12:00;;;;;;;;;;;;;;;7.55;60.43;101449.03;1762816;79;20182;-80
2022/01/18 11:14:26;;;;;;;;;;;;;;;7.64;60.18;101455.91;1758836;80;20340;-81
2022/01/18 11:16:55;;;;;;;;;;;;;;;7.81;59.24;101454.27;1758778;79;21065;-80
2022/01/18 11:21:58;;;;;;;;;;;;;;;7.79;59.62;101453.55;1756715;80;20233;-80
2022/01/18 11:24:24;;;;;;;;;;;;;;;7.93;59.23;101455.70;1758065;79;20291;-80
2022/01/18 11:26:50;;;;;;;;;;;;;;;7.97;58.87;101459.33;1761432;79;20927;-80
2022/01/18 11:29:17;;;;;;;;;;;;;;;8.00;58.66;101463.52;1758360;80;21148;-81
2022/01/18 11:31:50;;;;;;;;;;;;;;;8.11;58.37;101458.36;1757836;80;20145;-82
2022/01/18 11:34:25;;;;;;;;;;;;;;;8.42;57.96;101455.70;1755629;79;20173;-82
2022/01/18 11:36:51;;;;;;;;;;;;;;;8.21;58.24;101456.75;1755652;80;21135;-81
2022/01/18 11:39:17;;;;;;;;;;;;;;;8.20;58.11;101468.25;1761038;80;20145;-81
2022/01/18 11:41:42;;;;;;;;;;;;;;;8.45;57.88;101455.97;1758816;80;21128;-80
2022/01/18 11:44:17;;;;;;;;;;;;;;;8.51;57.42;101456.85;1758525;79;20161;-79
2022/01/18 11:46:47;;;;;;;;;;;;;;;8.51;57.01;101467.87;1757731;79;20176;-80
2022/01/18 11:49:23;;;;;;;;;;;;;;;8.42;56.72;101458.80;1758170;80;20180;-81
2022/01/18 11:51:55;;;;;;;;;;;;;;;8.71;56.29;101459.84;1755066;79;20222;-80
2022/01/18 11:54:37;;;;;;;;;;;;;;;8.10;56.90;101479.03;1759423;80;21913;-79
2022/01/18 11:57:02;;;;;;;;;;;;;;;8.01;57.33;101467.84;1756899;79;20149;-79
2022/01/18 11:59:39;;;;;;;;;;;;;;;7.74;58.24;101476.69;1756293;80;20122;-78
2022/01/18 12:02:05;;;;;;;;;;;;;;;7.66;58.45;101477.67;1759719;80;20172;-78
2022/01/18 12:04:51;;;;;;;;;;;;;;;7.68;58.21;101490.26;1757733;80;20166;-79
2022/01/18 12:07:36;;;;;;;;;;;;;;;7.63;58.23;101489.70;1763204;79;20111;-78
2022/01/18 12:10:07;;;;;;;;;;;;;;;7.68;58.47;101485.00;1774554;79;20146;-77
2022/01/18 12:12:49;;;;;;;;;;;;;;;7.23;59.32;101481.89;1750489;79;20457;-79
2022/01/18 12:15:26;;;;;;;;;;;;;;;7.49;59.09;101499.38;1769392;80;20176;-78
2022/01/18 12:17:51;;;;;;;;;;;;;;;7.66;58.59;101507.91;1766188;79;20611;-78
2022/01/18 12:20:42;;;;;;;;;;;;;;;7.15;59.92;101512.13;1767291;79;21916;-80
2022/01/18 12:23:20;;;;;;;;;;;;;;;7.35;59.38;101521.80;1755604;79;20649;-79
2022/01/18 12:25:57;;;;;;;;;;;;;;;7.26;59.87;101514.53;1756075;79;20195;-79
2022/01/18 12:29:19;;;;;;;;;;;;;;;7.53;58.92;101507.89;1755742;80;20480;-81
2022/01/18 12:34:40;;;;;;;;;;;;;;;7.60;58.91;101503.06;1770318;80;20473;-80
2022/01/18 12:37:13;;;;;;;;;;;;;;;8.00;58.43;101501.20;1765893;79;20153;-80
2022/01/18 12:45:20;;;;;;;;;;;;;;;8.23;57.98;101511.91;1768188;79;20136;-79
2022/01/18 12:47:49;;;;;;;;;;;;;;;8.08;58.58;101509.88;1774051;79;21158;-78
2022/01/18 12:50:24;;;;;;;;;;;;;;;8.03;58.98;101515.46;1762922;79;20165;-80
2022/01/18 12:52:54;;;;;;;;;;;;;;;7.97;59.50;101511.08;1766644;80;20499;-79
2022/01/18 12:55:45;;;;;;;;;;;;;;;8.01;59.24;101519.97;1760806;80;20177;-79
2022/01/18 12:58:23;;;;;;;;;;;;;;;8.25;58.69;101518.75;1768056;79;20191;-78
2022/01/18 13:00:54;;;;;;;;;;;;;;;7.99;59.68;101527.13;1750072;81;21149;-79
2022/01/18 13:03:22;;;;;;;;;;;;;;;8.23;59.01;101529.88;1767511;79;20219;-79
2022/01/18 13:05:48;;;;;;;;;;;;;;;7.90;59.86;101527.27;1763199;80;20181;-79
2022/01/18 13:08:16;;;;;;;;;;;;;;;8.11;59.65;101530.72;1764983;80;20220;-79
2022/01/18 13:10:45;;;;;;;;;;;;;;;8.00;59.13;101547.69;1746793;80;20252;-79
2022/01/18 13:13:16;;;;;;;;;;;;;;;8.33;59.02;101528.74;1757670;79;21253;-79
2022/01/18 13:16:04;;;;;;;;;;;;;;;8.55;58.38;101549.16;1760077;79;20168;-82
2022/01/18 13:22:57;;;;;;;;;;;;;;;8.10;59.00;101547.44;1754994;79;20144;-79
2022/01/18 13:23:50;;;;;;;;;;;;;;;8.32;58.67;101559.13;1757513;80;20140;-79
2022/01/18 13:26:04;;;;;;;;;;;;;;;8.24;58.99;101551.75;1737096;80;20177;-83
2022/01/18 13:28:34;;;;;;;;;;;;;;;8.03;59.35;101555.37;1762495;79;20248;-83
2022/01/18 13:31:17;;;;;;;;;;;;;;;8.41;58.71;101557.16;1754376;79;20244;-79
2022/01/18 13:33:53;;;;;;;;;;;;;;;8.57;58.64;101552.52;1733098;81;20266;-81
2022/01/18 13:36:21;;;;;;;;;;;;;;;8.35;59.07;101568.12;1754346;79;20205;-79
2022/01/18 13:38:46;;;;;;;;;;;;;;;8.38;59.09;101562.64;1751667;80;20139;-79
2022/01/18 13:41:12;;;;;;;;;;;;;;;8.66;58.87;101568.16;1759478;80;20188;-79
2022/01/18 13:43:38;;;;;;;;;;;;;;;8.81;58.31;101570.19;1758287;79;20487;-79
2022/01/18 13:46:03;;;;;;;;;;;;;;;8.63;58.23;101574.47;1761784;79;20698;-80
2022/01/18 13:48:31;;;;;;;;;;;;;;;7.82;59.73;101582.19;1774192;79;20258;-80
2022/01/18 13:50:57;;;;;;;;;;;;;;;8.21;59.00;101576.97;1737654;81;22399;-80
2022/01/18 13:53:28;;;;;;;;;;;;;;;8.24;58.97;101574.95;1747592;80;20090;-79
2022/01/18 13:56:04;;;;;;;;;;;;;;;8.66;58.47;101567.32;1739910;81;20134;-79
2022/01/18 13:58:35;;;;;;;;;;;;;;;8.83;58.63;101565.64;1740982;80;20189;-79
2022/01/18 14:01:06;;;;;;;;;;;;;;;8.53;58.88;101575.22;1748881;79;20160;-81
2022/01/18 14:03:33;;;;;;;;;;;;;;;8.71;59.00;101569.14;1748275;79;21246;-83
2022/01/18 14:05:59;;;;;;;;;;;;;;;8.73;58.49;101575.13;1752874;80;20137;-80
2022/01/18 14:08:43;;;;;;;;;;;;;;;9.16;57.03;101579.47;1751129;80;20196;-81
2022/01/18 14:11:10;;;;;;;;;;;;;;;9.15;57.43;101578.27;1746817;80;20192;-78
2022/01/18 14:13:36;;;;;;;;;;;;;;;9.29;57.29;101580.75;1764983;80;20161;-80